sensor_id;sensor_type;location;lat;lon;timestamp;P1;durP1;ratioP1;P2;durP2;ratioP2
13327;SDS011;6733;51.044;3.746;2022-07-11T00:02:25;10.97;;;6.73;;
13327;SDS011;6733;51.044;3.746;2022-07-11T00:04:52;9.10;;;6.20;;
13327;SDS011;6733;51.044;3.746;2022-07-11T00:07:18;7.77;;;6.43;;
13327;SDS011;6733;51.044;3.746;2022-07-11T00:09:44;8.60;;;6.57;;
13327;SDS011;6733;51.044;3.746;2022-07-11T00:12:10;8.03;;;6.63;;
13327;SDS011;6733;51.044;3.746;2022-07-11T00:14:37;8.77;;;7.07;;
13327;SDS011;6733;51.044;3.746;2022-07-11T00:17:07;7.90;;;7.10;;
13327;SDS011;6733;51.044;3.746;2022-07-11T00:19:34;7.07;;;6.37;;
13327;SDS011;6733;51.044;3.746;2022-07-11T00:22:02;8.27;;;6.67;;
13327;SDS011;6733;51.044;3.746;2022-07-11T00:24:28;7.13;;;6.43;;
13327;SDS011;6733;51.044;3.746;2022-07-11T00:26:55;8.37;;;6.70;;
13327;SDS011;6733;51.044;3.746;2022-07-11T00:29:21;8.97;;;7.17;;
13327;SDS011;6733;51.044;3.746;2022-07-11T00:31:47;8.27;;;7.30;;
13327;SDS011;6733;51.044;3.746;2022-07-11T00:34:13;9.83;;;8.33;;
13327;SDS011;6733;51.044;3.746;2022-07-11T00:36:41;8.43;;;7.20;;
13327;SDS011;6733;51.044;3.746;2022-07-11T00:39:07;8.83;;;8.00;;
13327;SDS011;6733;51.044;3.746;2022-07-11T00:41:33;9.83;;;8.83;;
13327;SDS011;6733;51.044;3.746;2022-07-11T00:43:59;10.87;;;7.93;;
13327;SDS011;6733;51.044;3.746;2022-07-11T00:46:27;9.17;;;7.90;;
13327;SDS011;6733;51.044;3.746;2022-07-11T00:48:55;11.33;;;8.43;;
13327;SDS011;6733;51.044;3.746;2022-07-11T00:51:22;9.60;;;8.23;;
13327;SDS011;6733;51.044;3.746;2022-07-11T00:53:50;10.43;;;8.93;;
13327;SDS011;6733;51.044;3.746;2022-07-11T00:56:21;12.00;;;9.73;;
13327;SDS011;6733;51.044;3.746;2022-07-11T00:58:49;12.43;;;10.20;;
13327;SDS011;6733;51.044;3.746;2022-07-11T01:01:16;12.00;;;9.83;;
13327;SDS011;6733;51.044;3.746;2022-07-11T01:03:43;12.17;;;10.70;;
13327;SDS011;6733;51.044;3.746;2022-07-11T01:06:11;11.57;;;10.03;;
13327;SDS011;6733;51.044;3.746;2022-07-11T01:08:38;11.33;;;10.20;;
13327;SDS011;6733;51.044;3.746;2022-07-11T01:11:05;13.23;;;10.60;;
13327;SDS011;6733;51.044;3.746;2022-07-11T01:13:38;13.73;;;9.87;;
13327;SDS011;6733;51.044;3.746;2022-07-11T01:16:15;13.57;;;10.73;;
13327;SDS011;6733;51.044;3.746;2022-07-11T01:18:44;14.33;;;10.20;;
13327;SDS011;6733;51.044;3.746;2022-07-11T01:23:53;10.37;;;9.37;;
13327;SDS011;6733;51.044;3.746;2022-07-11T01:26:20;11.40;;;8.53;;
13327;SDS011;6733;51.044;3.746;2022-07-11T01:28:47;11.57;;;9.13;;
13327;SDS011;6733;51.044;3.746;2022-07-11T01:31:14;9.70;;;8.80;;
13327;SDS011;6733;51.044;3.746;2022-07-11T01:33:40;10.43;;;9.33;;
13327;SDS011;6733;51.044;3.746;2022-07-11T01:36:07;12.90;;;10.13;;
13327;SDS011;6733;51.044;3.746;2022-07-11T01:38:33;12.77;;;9.77;;
13327;SDS011;6733;51.044;3.746;2022-07-11T01:41:00;12.87;;;9.77;;
13327;SDS011;6733;51.044;3.746;2022-07-11T01:43:26;10.90;;;9.80;;
13327;SDS011;6733;51.044;3.746;2022-07-11T01:45:52;12.10;;;10.80;;
13327;SDS011;6733;51.044;3.746;2022-07-11T01:48:19;12.97;;;10.43;;
13327;SDS011;6733;51.044;3.746;2022-07-11T01:50:46;13.93;;;10.60;;
13327;SDS011;6733;51.044;3.746;2022-07-11T01:53:13;13.13;;;10.83;;
13327;SDS011;6733;51.044;3.746;2022-07-11T01:55:39;12.50;;;10.23;;
13327;SDS011;6733;51.044;3.746;2022-07-11T01:58:06;14.73;;;11.20;;
13327;SDS011;6733;51.044;3.746;2022-07-11T02:00:32;11.43;;;10.33;;
13327;SDS011;6733;51.044;3.746;2022-07-11T02:02:58;12.47;;;11.03;;
13327;SDS011;6733;51.044;3.746;2022-07-11T02:05:24;14.17;;;11.00;;
13327;SDS011;6733;51.044;3.746;2022-07-11T02:07:51;16.40;;;10.60;;
13327;SDS011;6733;51.044;3.746;2022-07-11T02:10:35;11.90;;;10.73;;
13327;SDS011;6733;51.044;3.746;2022-07-11T02:13:02;13.97;;;10.67;;
13327;SDS011;6733;51.044;3.746;2022-07-11T02:15:28;12.07;;;10.83;;
13327;SDS011;6733;51.044;3.746;2022-07-11T02:17:56;12.57;;;10.23;;
13327;SDS011;6733;51.044;3.746;2022-07-11T02:20:23;12.43;;;10.63;;
13327;SDS011;6733;51.044;3.746;2022-07-11T02:22:49;13.33;;;11.10;;
13327;SDS011;6733;51.044;3.746;2022-07-11T02:25:16;12.97;;;11.23;;
13327;SDS011;6733;51.044;3.746;2022-07-11T02:27:43;11.87;;;10.47;;
13327;SDS011;6733;51.044;3.746;2022-07-11T02:30:09;13.13;;;10.70;;
13327;SDS011;6733;51.044;3.746;2022-07-11T02:32:37;13.40;;;10.77;;
13327;SDS011;6733;51.044;3.746;2022-07-11T02:35:10;15.07;;;10.80;;
13327;SDS011;6733;51.044;3.746;2022-07-11T02:37:36;12.53;;;11.23;;
13327;SDS011;6733;51.044;3.746;2022-07-11T02:40:02;12.30;;;10.80;;
13327;SDS011;6733;51.044;3.746;2022-07-11T02:42:29;12.13;;;10.93;;
13327;SDS011;6733;51.044;3.746;2022-07-11T02:44:55;12.53;;;11.20;;
13327;SDS011;6733;51.044;3.746;2022-07-11T02:47:21;13.87;;;11.00;;
13327;SDS011;6733;51.044;3.746;2022-07-11T02:49:47;14.23;;;11.57;;
13327;SDS011;6733;51.044;3.746;2022-07-11T02:52:14;14.40;;;10.97;;
13327;SDS011;6733;51.044;3.746;2022-07-11T02:54:40;12.77;;;11.27;;
13327;SDS011;6733;51.044;3.746;2022-07-11T02:57:06;12.53;;;11.17;;
13327;SDS011;6733;51.044;3.746;2022-07-11T02:59:32;12.70;;;10.83;;
13327;SDS011;6733;51.044;3.746;2022-07-11T03:01:59;13.77;;;12.03;;
13327;SDS011;6733;51.044;3.746;2022-07-11T03:04:25;14.13;;;10.93;;
13327;SDS011;6733;51.044;3.746;2022-07-11T03:06:51;10.53;;;9.43;;
13327;SDS011;6733;51.044;3.746;2022-07-11T03:09:19;10.53;;;8.63;;
13327;SDS011;6733;51.044;3.746;2022-07-11T03:11:45;10.40;;;8.53;;
13327;SDS011;6733;51.044;3.746;2022-07-11T03:14:12;10.57;;;9.47;;
13327;SDS011;6733;51.044;3.746;2022-07-11T03:16:38;10.97;;;9.20;;
13327;SDS011;6733;51.044;3.746;2022-07-11T03:19:04;11.33;;;10.13;;
13327;SDS011;6733;51.044;3.746;2022-07-11T03:21:30;13.60;;;10.23;;
13327;SDS011;6733;51.044;3.746;2022-07-11T03:23:56;11.50;;;10.30;;
13327;SDS011;6733;51.044;3.746;2022-07-11T03:26:22;13.53;;;11.17;;
13327;SDS011;6733;51.044;3.746;2022-07-11T03:28:48;11.20;;;10.20;;
13327;SDS011;6733;51.044;3.746;2022-07-11T03:31:14;11.93;;;10.40;;
13327;SDS011;6733;51.044;3.746;2022-07-11T03:33:41;15.73;;;10.47;;
13327;SDS011;6733;51.044;3.746;2022-07-11T03:36:07;12.13;;;10.93;;
13327;SDS011;6733;51.044;3.746;2022-07-11T03:38:33;11.63;;;10.43;;
13327;SDS011;6733;51.044;3.746;2022-07-11T03:40:59;11.87;;;9.73;;
13327;SDS011;6733;51.044;3.746;2022-07-11T03:43:25;15.50;;;9.80;;
13327;SDS011;6733;51.044;3.746;2022-07-11T03:45:51;11.33;;;10.13;;
13327;SDS011;6733;51.044;3.746;2022-07-11T03:48:18;15.03;;;10.17;;
13327;SDS011;6733;51.044;3.746;2022-07-11T03:50:44;11.97;;;10.67;;
13327;SDS011;6733;51.044;3.746;2022-07-11T03:53:10;13.10;;;10.97;;
13327;SDS011;6733;51.044;3.746;2022-07-11T03:55:36;13.63;;;10.57;;
13327;SDS011;6733;51.044;3.746;2022-07-11T03:58:03;14.27;;;12.23;;
13327;SDS011;6733;51.044;3.746;2022-07-11T04:00:29;12.63;;;11.33;;
13327;SDS011;6733;51.044;3.746;2022-07-11T04:02:55;15.67;;;12.73;;
13327;SDS011;6733;51.044;3.746;2022-07-11T04:05:23;14.67;;;12.90;;
13327;SDS011;6733;51.044;3.746;2022-07-11T04:07:49;17.33;;;13.17;;
13327;SDS011;6733;51.044;3.746;2022-07-11T04:10:16;14.43;;;12.97;;
13327;SDS011;6733;51.044;3.746;2022-07-11T04:12:45;14.47;;;12.93;;
13327;SDS011;6733;51.044;3.746;2022-07-11T04:15:11;15.33;;;13.10;;
13327;SDS011;6733;51.044;3.746;2022-07-11T04:17:37;18.47;;;14.83;;
13327;SDS011;6733;51.044;3.746;2022-07-11T04:20:04;16.23;;;13.60;;
13327;SDS011;6733;51.044;3.746;2022-07-11T04:22:31;17.50;;;13.70;;
13327;SDS011;6733;51.044;3.746;2022-07-11T04:24:57;15.97;;;14.37;;
13327;SDS011;6733;51.044;3.746;2022-07-11T04:27:23;16.67;;;14.97;;
13327;SDS011;6733;51.044;3.746;2022-07-11T04:29:52;17.83;;;14.70;;
13327;SDS011;6733;51.044;3.746;2022-07-11T04:32:18;20.87;;;15.23;;
13327;SDS011;6733;51.044;3.746;2022-07-11T04:34:45;18.33;;;15.37;;
13327;SDS011;6733;51.044;3.746;2022-07-11T04:37:11;22.03;;;17.33;;
13327;SDS011;6733;51.044;3.746;2022-07-11T04:39:37;22.50;;;18.53;;
13327;SDS011;6733;51.044;3.746;2022-07-11T04:42:04;19.40;;;14.70;;
13327;SDS011;6733;51.044;3.746;2022-07-11T04:44:32;21.50;;;15.30;;
13327;SDS011;6733;51.044;3.746;2022-07-11T04:46:58;17.57;;;15.57;;
13327;SDS011;6733;51.044;3.746;2022-07-11T04:49:24;22.97;;;17.13;;
13327;SDS011;6733;51.044;3.746;2022-07-11T04:51:50;20.77;;;16.70;;
13327;SDS011;6733;51.044;3.746;2022-07-11T04:54:17;20.63;;;16.70;;
13327;SDS011;6733;51.044;3.746;2022-07-11T04:56:43;20.20;;;16.40;;
13327;SDS011;6733;51.044;3.746;2022-07-11T04:59:09;25.17;;;17.83;;
13327;SDS011;6733;51.044;3.746;2022-07-11T05:01:35;19.87;;;17.80;;
13327;SDS011;6733;51.044;3.746;2022-07-11T05:04:01;21.07;;;18.93;;
13327;SDS011;6733;51.044;3.746;2022-07-11T05:06:29;22.13;;;19.30;;
13327;SDS011;6733;51.044;3.746;2022-07-11T05:08:55;23.73;;;20.03;;
13327;SDS011;6733;51.044;3.746;2022-07-11T05:11:21;22.93;;;18.97;;
13327;SDS011;6733;51.044;3.746;2022-07-11T05:13:48;22.80;;;18.80;;
13327;SDS011;6733;51.044;3.746;2022-07-11T05:16:14;20.43;;;18.33;;
13327;SDS011;6733;51.044;3.746;2022-07-11T05:18:40;20.77;;;18.37;;
13327;SDS011;6733;51.044;3.746;2022-07-11T05:21:07;18.77;;;14.83;;
13327;SDS011;6733;51.044;3.746;2022-07-11T05:23:33;18.80;;;15.57;;
13327;SDS011;6733;51.044;3.746;2022-07-11T05:25:59;19.00;;;14.73;;
13327;SDS011;6733;51.044;3.746;2022-07-11T05:28:25;20.73;;;16.07;;
13327;SDS011;6733;51.044;3.746;2022-07-11T05:30:51;19.63;;;16.20;;
13327;SDS011;6733;51.044;3.746;2022-07-11T05:33:18;19.27;;;15.10;;
13327;SDS011;6733;51.044;3.746;2022-07-11T05:35:44;18.33;;;16.30;;
13327;SDS011;6733;51.044;3.746;2022-07-11T05:38:10;19.17;;;16.17;;
13327;SDS011;6733;51.044;3.746;2022-07-11T05:40:36;18.57;;;15.70;;
13327;SDS011;6733;51.044;3.746;2022-07-11T05:43:02;20.50;;;15.43;;
13327;SDS011;6733;51.044;3.746;2022-07-11T05:45:28;19.77;;;15.40;;
13327;SDS011;6733;51.044;3.746;2022-07-11T05:47:54;20.07;;;16.10;;
13327;SDS011;6733;51.044;3.746;2022-07-11T05:50:20;17.27;;;13.27;;
13327;SDS011;6733;51.044;3.746;2022-07-11T05:52:46;16.17;;;13.30;;
13327;SDS011;6733;51.044;3.746;2022-07-11T05:55:13;16.57;;;13.07;;
13327;SDS011;6733;51.044;3.746;2022-07-11T05:57:39;14.77;;;12.40;;
13327;SDS011;6733;51.044;3.746;2022-07-11T06:00:05;13.37;;;11.80;;
13327;SDS011;6733;51.044;3.746;2022-07-11T06:02:31;17.53;;;12.63;;
13327;SDS011;6733;51.044;3.746;2022-07-11T06:04:57;12.97;;;11.70;;
13327;SDS011;6733;51.044;3.746;2022-07-11T06:07:23;17.47;;;12.47;;
13327;SDS011;6733;51.044;3.746;2022-07-11T06:10:08;16.60;;;12.27;;
13327;SDS011;6733;51.044;3.746;2022-07-11T06:12:34;13.17;;;10.73;;
13327;SDS011;6733;51.044;3.746;2022-07-11T06:15:01;15.00;;;11.53;;
13327;SDS011;6733;51.044;3.746;2022-07-11T06:17:27;18.27;;;12.20;;
13327;SDS011;6733;51.044;3.746;2022-07-11T06:19:53;13.87;;;12.33;;
13327;SDS011;6733;51.044;3.746;2022-07-11T06:22:19;13.70;;;12.23;;
13327;SDS011;6733;51.044;3.746;2022-07-11T06:24:45;11.50;;;10.30;;
13327;SDS011;6733;51.044;3.746;2022-07-11T06:27:12;10.83;;;9.73;;
13327;SDS011;6733;51.044;3.746;2022-07-11T06:29:38;12.87;;;10.20;;
13327;SDS011;6733;51.044;3.746;2022-07-11T06:32:04;11.00;;;9.90;;
13327;SDS011;6733;51.044;3.746;2022-07-11T06:34:30;10.50;;;9.47;;
13327;SDS011;6733;51.044;3.746;2022-07-11T06:36:57;11.43;;;9.33;;
13327;SDS011;6733;51.044;3.746;2022-07-11T06:39:24;11.53;;;9.17;;
13327;SDS011;6733;51.044;3.746;2022-07-11T06:41:50;10.10;;;8.93;;
13327;SDS011;6733;51.044;3.746;2022-07-11T06:44:16;13.30;;;9.90;;
13327;SDS011;6733;51.044;3.746;2022-07-11T06:46:43;11.60;;;10.40;;
13327;SDS011;6733;51.044;3.746;2022-07-11T06:49:09;12.80;;;9.60;;
13327;SDS011;6733;51.044;3.746;2022-07-11T06:51:38;11.47;;;10.30;;
13327;SDS011;6733;51.044;3.746;2022-07-11T06:54:05;14.00;;;9.50;;
13327;SDS011;6733;51.044;3.746;2022-07-11T06:56:31;11.63;;;8.80;;
13327;SDS011;6733;51.044;3.746;2022-07-11T06:58:57;11.97;;;10.20;;
13327;SDS011;6733;51.044;3.746;2022-07-11T07:01:24;11.60;;;9.67;;
13327;SDS011;6733;51.044;3.746;2022-07-11T07:03:50;10.20;;;9.07;;
13327;SDS011;6733;51.044;3.746;2022-07-11T07:06:17;10.67;;;9.57;;
13327;SDS011;6733;51.044;3.746;2022-07-11T07:08:43;13.77;;;10.87;;
13327;SDS011;6733;51.044;3.746;2022-07-11T07:11:09;13.47;;;11.67;;
13327;SDS011;6733;51.044;3.746;2022-07-11T07:13:35;11.53;;;9.37;;
13327;SDS011;6733;51.044;3.746;2022-07-11T07:16:01;9.80;;;8.87;;
13327;SDS011;6733;51.044;3.746;2022-07-11T07:18:28;11.27;;;9.67;;
13327;SDS011;6733;51.044;3.746;2022-07-11T07:20:54;9.83;;;7.80;;
13327;SDS011;6733;51.044;3.746;2022-07-11T07:23:20;7.57;;;6.70;;
13327;SDS011;6733;51.044;3.746;2022-07-11T07:25:46;9.40;;;7.57;;
13327;SDS011;6733;51.044;3.746;2022-07-11T07:28:13;8.27;;;7.33;;
13327;SDS011;6733;51.044;3.746;2022-07-11T07:30:39;9.73;;;6.63;;
13327;SDS011;6733;51.044;3.746;2022-07-11T07:33:05;11.30;;;9.27;;
13327;SDS011;6733;51.044;3.746;2022-07-11T07:35:31;11.23;;;8.53;;
13327;SDS011;6733;51.044;3.746;2022-07-11T07:37:57;9.80;;;8.67;;
13327;SDS011;6733;51.044;3.746;2022-07-11T07:40:26;8.83;;;7.20;;
13327;SDS011;6733;51.044;3.746;2022-07-11T07:42:52;8.20;;;6.87;;
13327;SDS011;6733;51.044;3.746;2022-07-11T07:45:18;8.23;;;6.33;;
13327;SDS011;6733;51.044;3.746;2022-07-11T07:47:44;9.50;;;7.80;;
13327;SDS011;6733;51.044;3.746;2022-07-11T07:50:11;7.10;;;6.40;;
13327;SDS011;6733;51.044;3.746;2022-07-11T07:52:37;7.10;;;6.40;;
13327;SDS011;6733;51.044;3.746;2022-07-11T07:55:03;8.23;;;6.67;;
13327;SDS011;6733;51.044;3.746;2022-07-11T07:57:31;8.23;;;7.17;;
13327;SDS011;6733;51.044;3.746;2022-07-11T07:59:56;7.93;;;7.13;;
13327;SDS011;6733;51.044;3.746;2022-07-11T08:02:41;10.77;;;8.10;;
13327;SDS011;6733;51.044;3.746;2022-07-11T08:05:08;11.87;;;8.33;;
13327;SDS011;6733;51.044;3.746;2022-07-11T08:07:35;9.77;;;8.70;;
13327;SDS011;6733;51.044;3.746;2022-07-11T08:10:04;12.33;;;9.03;;
13327;SDS011;6733;51.044;3.746;2022-07-11T08:12:30;8.10;;;7.00;;
13327;SDS011;6733;51.044;3.746;2022-07-11T08:14:56;4.63;;;4.23;;
13327;SDS011;6733;51.044;3.746;2022-07-11T08:17:22;7.20;;;6.50;;
13327;SDS011;6733;51.044;3.746;2022-07-11T08:19:48;9.67;;;7.63;;
13327;SDS011;6733;51.044;3.746;2022-07-11T08:22:14;7.97;;;7.17;;
13327;SDS011;6733;51.044;3.746;2022-07-11T08:24:40;9.00;;;7.03;;
13327;SDS011;6733;51.044;3.746;2022-07-11T08:27:07;7.93;;;6.30;;
13327;SDS011;6733;51.044;3.746;2022-07-11T08:29:33;7.60;;;6.27;;
13327;SDS011;6733;51.044;3.746;2022-07-11T08:31:59;7.77;;;6.03;;
13327;SDS011;6733;51.044;3.746;2022-07-11T08:34:25;8.83;;;6.83;;
13327;SDS011;6733;51.044;3.746;2022-07-11T08:36:51;11.47;;;8.40;;
13327;SDS011;6733;51.044;3.746;2022-07-11T08:39:17;10.10;;;8.57;;
13327;SDS011;6733;51.044;3.746;2022-07-11T08:41:43;9.13;;;7.27;;
13327;SDS011;6733;51.044;3.746;2022-07-11T08:44:13;9.27;;;8.23;;
13327;SDS011;6733;51.044;3.746;2022-07-11T08:46:40;9.67;;;8.60;;
13327;SDS011;6733;51.044;3.746;2022-07-11T08:49:07;11.03;;;7.33;;
13327;SDS011;6733;51.044;3.746;2022-07-11T08:51:36;8.73;;;7.30;;
13327;SDS011;6733;51.044;3.746;2022-07-11T08:54:03;8.70;;;7.80;;
13327;SDS011;6733;51.044;3.746;2022-07-11T08:56:30;8.87;;;7.67;;
13327;SDS011;6733;51.044;3.746;2022-07-11T08:59:00;10.17;;;9.17;;
13327;SDS011;6733;51.044;3.746;2022-07-11T09:01:28;9.37;;;8.33;;
13327;SDS011;6733;51.044;3.746;2022-07-11T09:03:56;9.70;;;8.60;;
13327;SDS011;6733;51.044;3.746;2022-07-11T09:06:23;8.60;;;7.50;;
13327;SDS011;6733;51.044;3.746;2022-07-11T09:08:49;7.80;;;7.00;;
13327;SDS011;6733;51.044;3.746;2022-07-11T09:11:15;8.43;;;7.10;;
13327;SDS011;6733;51.044;3.746;2022-07-11T09:13:42;7.13;;;6.07;;
13327;SDS011;6733;51.044;3.746;2022-07-11T09:16:08;9.63;;;8.63;;
13327;SDS011;6733;51.044;3.746;2022-07-11T09:18:36;9.03;;;7.37;;
13327;SDS011;6733;51.044;3.746;2022-07-11T09:21:08;11.07;;;7.30;;
13327;SDS011;6733;51.044;3.746;2022-07-11T09:23:53;8.83;;;7.27;;
13327;SDS011;6733;51.044;3.746;2022-07-11T09:26:40;10.17;;;7.10;;
13327;SDS011;6733;51.044;3.746;2022-07-11T09:29:09;7.60;;;6.50;;
13327;SDS011;6733;51.044;3.746;2022-07-11T09:31:37;6.73;;;6.10;;
13327;SDS011;6733;51.044;3.746;2022-07-11T09:39:05;6.83;;;5.77;;
13327;SDS011;6733;51.044;3.746;2022-07-11T09:41:33;7.53;;;6.10;;
13327;SDS011;6733;51.044;3.746;2022-07-11T09:46:49;7.20;;;5.77;;
13327;SDS011;6733;51.044;3.746;2022-07-11T09:49:33;7.03;;;5.27;;
13327;SDS011;6733;51.044;3.746;2022-07-11T09:52:11;8.90;;;6.07;;
13327;SDS011;6733;51.044;3.746;2022-07-11T09:54:51;9.67;;;6.00;;
13327;SDS011;6733;51.044;3.746;2022-07-11T09:57:31;8.93;;;5.87;;
13327;SDS011;6733;51.044;3.746;2022-07-11T09:59:59;8.00;;;5.70;;
13327;SDS011;6733;51.044;3.746;2022-07-11T10:02:26;6.80;;;5.83;;
13327;SDS011;6733;51.044;3.746;2022-07-11T10:04:52;7.33;;;5.67;;
13327;SDS011;6733;51.044;3.746;2022-07-11T10:07:19;6.47;;;5.70;;
13327;SDS011;6733;51.044;3.746;2022-07-11T10:09:45;7.60;;;5.37;;
13327;SDS011;6733;51.044;3.746;2022-07-11T10:12:11;5.90;;;5.30;;
13327;SDS011;6733;51.044;3.746;2022-07-11T10:14:38;9.83;;;5.93;;
13327;SDS011;6733;51.044;3.746;2022-07-11T10:17:07;5.47;;;4.70;;
13327;SDS011;6733;51.044;3.746;2022-07-11T10:19:42;8.90;;;5.07;;
13327;SDS011;6733;51.044;3.746;2022-07-11T10:30:51;8.03;;;5.80;;
13327;SDS011;6733;51.044;3.746;2022-07-11T10:33:21;7.93;;;5.57;;
13327;SDS011;6733;51.044;3.746;2022-07-11T10:35:48;6.13;;;5.60;;
13327;SDS011;6733;51.044;3.746;2022-07-11T10:38:15;7.03;;;4.97;;
13327;SDS011;6733;51.044;3.746;2022-07-11T10:40:44;6.30;;;5.13;;
13327;SDS011;6733;51.044;3.746;2022-07-11T10:48:29;8.70;;;6.27;;
13327;SDS011;6733;51.044;3.746;2022-07-11T10:53:34;7.30;;;5.10;;
13327;SDS011;6733;51.044;3.746;2022-07-11T10:59:14;6.05;;;5.50;;
13327;SDS011;6733;51.044;3.746;2022-07-11T11:04:46;6.50;;;5.18;;
13327;SDS011;6733;51.044;3.746;2022-07-11T11:07:26;5.28;;;4.30;;
13327;SDS011;6733;51.044;3.746;2022-07-11T11:09:53;4.82;;;4.43;;
13327;SDS011;6733;51.044;3.746;2022-07-11T11:12:19;8.52;;;7.65;;
13327;SDS011;6733;51.044;3.746;2022-07-11T11:14:46;4.50;;;4.05;;
13327;SDS011;6733;51.044;3.746;2022-07-11T11:20:30;5.22;;;3.80;;
13327;SDS011;6733;51.044;3.746;2022-07-11T11:23:09;6.68;;;4.22;;
13327;SDS011;6733;51.044;3.746;2022-07-11T11:25:36;6.43;;;4.95;;
13327;SDS011;6733;51.044;3.746;2022-07-11T11:28:03;6.72;;;4.90;;
13327;SDS011;6733;51.044;3.746;2022-07-11T11:30:30;5.72;;;5.13;;
13327;SDS011;6733;51.044;3.746;2022-07-11T11:32:57;5.05;;;3.85;;
13327;SDS011;6733;51.044;3.746;2022-07-11T11:35:23;5.55;;;5.00;;
13327;SDS011;6733;51.044;3.746;2022-07-11T11:37:49;6.88;;;4.78;;
13327;SDS011;6733;51.044;3.746;2022-07-11T11:40:17;6.03;;;4.68;;
13327;SDS011;6733;51.044;3.746;2022-07-11T11:42:44;5.68;;;4.88;;
13327;SDS011;6733;51.044;3.746;2022-07-11T11:45:10;5.93;;;5.03;;
13327;SDS011;6733;51.044;3.746;2022-07-11T11:47:46;5.85;;;4.15;;
13327;SDS011;6733;51.044;3.746;2022-07-11T11:50:16;5.45;;;4.40;;
13327;SDS011;6733;51.044;3.746;2022-07-11T11:52:42;5.40;;;4.82;;
13327;SDS011;6733;51.044;3.746;2022-07-11T11:55:09;7.75;;;5.30;;
13327;SDS011;6733;51.044;3.746;2022-07-11T11:57:37;6.10;;;5.00;;
13327;SDS011;6733;51.044;3.746;2022-07-11T12:00:13;6.97;;;4.30;;
13327;SDS011;6733;51.044;3.746;2022-07-11T12:02:47;4.72;;;3.88;;
13327;SDS011;6733;51.044;3.746;2022-07-11T12:05:13;5.30;;;4.15;;
13327;SDS011;6733;51.044;3.746;2022-07-11T12:07:41;4.40;;;3.95;;
13327;SDS011;6733;51.044;3.746;2022-07-11T12:10:07;5.85;;;4.40;;
13327;SDS011;6733;51.044;3.746;2022-07-11T12:12:34;4.53;;;4.07;;
13327;SDS011;6733;51.044;3.746;2022-07-11T12:18:43;5.78;;;3.70;;
13327;SDS011;6733;51.044;3.746;2022-07-11T12:21:09;5.10;;;3.65;;
13327;SDS011;6733;51.044;3.746;2022-07-11T12:23:37;4.22;;;3.67;;
13327;SDS011;6733;51.044;3.746;2022-07-11T12:26:03;7.60;;;3.58;;
13327;SDS011;6733;51.044;3.746;2022-07-11T12:28:31;4.93;;;4.00;;
13327;SDS011;6733;51.044;3.746;2022-07-11T12:30:58;5.47;;;3.05;;
13327;SDS011;6733;51.044;3.746;2022-07-11T12:33:24;4.18;;;3.13;;
13327;SDS011;6733;51.044;3.746;2022-07-11T12:35:55;4.10;;;3.70;;
13327;SDS011;6733;51.044;3.746;2022-07-11T12:41:17;4.55;;;3.38;;
13327;SDS011;6733;51.044;3.746;2022-07-11T12:46:30;5.38;;;4.18;;
13327;SDS011;6733;51.044;3.746;2022-07-11T12:49:00;4.70;;;4.30;;
13327;SDS011;6733;51.044;3.746;2022-07-11T12:51:36;6.90;;;3.85;;
13327;SDS011;6733;51.044;3.746;2022-07-11T12:54:08;7.55;;;3.53;;
13327;SDS011;6733;51.044;3.746;2022-07-11T12:56:36;4.05;;;3.47;;
13327;SDS011;6733;51.044;3.746;2022-07-11T12:59:02;3.78;;;3.30;;
13327;SDS011;6733;51.044;3.746;2022-07-11T13:01:30;7.65;;;4.13;;
13327;SDS011;6733;51.044;3.746;2022-07-11T13:03:57;6.28;;;3.20;;
13327;SDS011;6733;51.044;3.746;2022-07-11T13:06:24;6.20;;;3.65;;
13327;SDS011;6733;51.044;3.746;2022-07-11T13:09:08;6.97;;;3.85;;
13327;SDS011;6733;51.044;3.746;2022-07-11T13:11:35;4.97;;;3.97;;
13327;SDS011;6733;51.044;3.746;2022-07-11T13:14:01;4.25;;;2.95;;
13327;SDS011;6733;51.044;3.746;2022-07-11T13:16:28;4.10;;;3.55;;
13327;SDS011;6733;51.044;3.746;2022-07-11T13:18:55;4.60;;;3.45;;
13327;SDS011;6733;51.044;3.746;2022-07-11T13:21:21;3.42;;;3.05;;
13327;SDS011;6733;51.044;3.746;2022-07-11T13:23:47;4.78;;;3.40;;
13327;SDS011;6733;51.044;3.746;2022-07-11T13:26:13;5.55;;;4.13;;
13327;SDS011;6733;51.044;3.746;2022-07-11T13:28:39;6.30;;;3.40;;
13327;SDS011;6733;51.044;3.746;2022-07-11T13:31:06;4.30;;;3.22;;
13327;SDS011;6733;51.044;3.746;2022-07-11T13:33:32;5.13;;;2.88;;
13327;SDS011;6733;51.044;3.746;2022-07-11T13:35:58;6.25;;;3.17;;
13327;SDS011;6733;51.044;3.746;2022-07-11T13:38:24;3.10;;;2.80;;
13327;SDS011;6733;51.044;3.746;2022-07-11T13:40:50;6.03;;;4.22;;
13327;SDS011;6733;51.044;3.746;2022-07-11T13:43:16;6.20;;;3.83;;
13327;SDS011;6733;51.044;3.746;2022-07-11T13:45:43;6.32;;;3.22;;
13327;SDS011;6733;51.044;3.746;2022-07-11T13:48:10;4.63;;;2.95;;
13327;SDS011;6733;51.044;3.746;2022-07-11T13:50:36;3.88;;;2.78;;
13327;SDS011;6733;51.044;3.746;2022-07-11T13:53:02;5.18;;;2.67;;
13327;SDS011;6733;51.044;3.746;2022-07-11T13:55:29;5.50;;;3.00;;
13327;SDS011;6733;51.044;3.746;2022-07-11T13:57:55;4.13;;;2.72;;
13327;SDS011;6733;51.044;3.746;2022-07-11T14:00:23;6.78;;;2.90;;
13327;SDS011;6733;51.044;3.746;2022-07-11T14:02:50;4.10;;;2.85;;
13327;SDS011;6733;51.044;3.746;2022-07-11T14:05:17;4.72;;;3.38;;
13327;SDS011;6733;51.044;3.746;2022-07-11T14:07:47;6.90;;;3.10;;
13327;SDS011;6733;51.044;3.746;2022-07-11T14:10:13;7.30;;;3.13;;
13327;SDS011;6733;51.044;3.746;2022-07-11T14:12:40;4.32;;;2.67;;
13327;SDS011;6733;51.044;3.746;2022-07-11T14:15:07;4.05;;;2.92;;
13327;SDS011;6733;51.044;3.746;2022-07-11T14:17:34;4.72;;;2.58;;
13327;SDS011;6733;51.044;3.746;2022-07-11T14:20:01;4.18;;;2.58;;
13327;SDS011;6733;51.044;3.746;2022-07-11T14:22:28;7.72;;;2.70;;
13327;SDS011;6733;51.044;3.746;2022-07-11T14:24:54;2.85;;;2.28;;
13327;SDS011;6733;51.044;3.746;2022-07-11T14:27:20;3.92;;;2.58;;
13327;SDS011;6733;51.044;3.746;2022-07-11T14:29:47;2.92;;;2.63;;
13327;SDS011;6733;51.044;3.746;2022-07-11T14:32:13;5.28;;;2.55;;
13327;SDS011;6733;51.044;3.746;2022-07-11T14:34:40;4.00;;;2.40;;
13327;SDS011;6733;51.044;3.746;2022-07-11T14:37:06;3.08;;;2.50;;
13327;SDS011;6733;51.044;3.746;2022-07-11T14:39:32;5.05;;;2.45;;
13327;SDS011;6733;51.044;3.746;2022-07-11T14:41:59;5.00;;;2.60;;
13327;SDS011;6733;51.044;3.746;2022-07-11T14:44:26;3.67;;;2.50;;
13327;SDS011;6733;51.044;3.746;2022-07-11T14:46:53;3.25;;;2.55;;
13327;SDS011;6733;51.044;3.746;2022-07-11T14:49:20;3.45;;;2.05;;
13327;SDS011;6733;51.044;3.746;2022-07-11T14:51:46;2.30;;;1.83;;
13327;SDS011;6733;51.044;3.746;2022-07-11T14:54:12;3.33;;;2.10;;
13327;SDS011;6733;51.044;3.746;2022-07-11T14:56:39;4.70;;;2.25;;
13327;SDS011;6733;51.044;3.746;2022-07-11T14:59:05;3.90;;;1.90;;
13327;SDS011;6733;51.044;3.746;2022-07-11T15:01:32;5.18;;;2.08;;
13327;SDS011;6733;51.044;3.746;2022-07-11T15:03:58;3.00;;;2.10;;
13327;SDS011;6733;51.044;3.746;2022-07-11T15:06:28;2.00;;;1.80;;
13327;SDS011;6733;51.044;3.746;2022-07-11T15:09:12;2.85;;;2.30;;
13327;SDS011;6733;51.044;3.746;2022-07-11T15:11:57;2.72;;;1.70;;
13327;SDS011;6733;51.044;3.746;2022-07-11T15:14:42;3.90;;;2.08;;
13327;SDS011;6733;51.044;3.746;2022-07-11T15:17:08;3.08;;;1.73;;
13327;SDS011;6733;51.044;3.746;2022-07-11T15:19:34;3.13;;;2.38;;
13327;SDS011;6733;51.044;3.746;2022-07-11T15:22:00;4.78;;;2.20;;
13327;SDS011;6733;51.044;3.746;2022-07-11T15:24:26;3.63;;;1.90;;
13327;SDS011;6733;51.044;3.746;2022-07-11T15:26:52;3.15;;;1.80;;
13327;SDS011;6733;51.044;3.746;2022-07-11T15:29:18;3.03;;;1.80;;
13327;SDS011;6733;51.044;3.746;2022-07-11T15:31:45;2.45;;;2.00;;
13327;SDS011;6733;51.044;3.746;2022-07-11T15:34:12;3.10;;;2.10;;
13327;SDS011;6733;51.044;3.746;2022-07-11T15:36:39;5.68;;;2.67;;
13327;SDS011;6733;51.044;3.746;2022-07-11T15:39:05;5.07;;;2.00;;